sensor_id;sensor_type;location;lat;lon;timestamp;P1;durP1;ratioP1;P2;durP2;ratioP2
11334;SDS011;5722;42.620;23.374;2023-05-07T00:01:15;5.63;;;5.10;;
11334;SDS011;5722;42.620;23.374;2023-05-07T00:03:53;5.60;;;5.10;;
11334;SDS011;5722;42.620;23.374;2023-05-07T00:06:20;5.70;;;5.20;;
11334;SDS011;5722;42.620;23.374;2023-05-07T00:08:53;8.93;;;5.67;;
11334;SDS011;5722;42.620;23.374;2023-05-07T00:11:22;5.90;;;5.30;;
11334;SDS011;5722;42.620;23.374;2023-05-07T00:13:50;6.03;;;5.43;;
11334;SDS011;5722;42.620;23.374;2023-05-07T00:16:17;7.50;;;5.77;;
11334;SDS011;5722;42.620;23.374;2023-05-07T00:18:44;7.50;;;6.57;;
11334;SDS011;5722;42.620;23.374;2023-05-07T00:21:11;9.00;;;7.57;;
11334;SDS011;5722;42.620;23.374;2023-05-07T00:23:40;8.53;;;7.43;;
11334;SDS011;5722;42.620;23.374;2023-05-07T00:26:08;7.30;;;6.10;;
11334;SDS011;5722;42.620;23.374;2023-05-07T00:28:35;6.90;;;5.93;;
11334;SDS011;5722;42.620;23.374;2023-05-07T00:31:03;6.60;;;5.90;;
11334;SDS011;5722;42.620;23.374;2023-05-07T00:33:30;7.57;;;6.80;;
11334;SDS011;5722;42.620;23.374;2023-05-07T00:35:58;6.90;;;6.20;;
11334;SDS011;5722;42.620;23.374;2023-05-07T00:41:00;8.57;;;6.10;;
11334;SDS011;5722;42.620;23.374;2023-05-07T00:43:29;7.17;;;6.47;;
11334;SDS011;5722;42.620;23.374;2023-05-07T00:45:58;9.23;;;6.63;;
11334;SDS011;5722;42.620;23.374;2023-05-07T00:48:27;9.27;;;7.03;;
11334;SDS011;5722;42.620;23.374;2023-05-07T00:50:54;10.57;;;7.17;;
11334;SDS011;5722;42.620;23.374;2023-05-07T00:53:21;8.80;;;7.00;;
11334;SDS011;5722;42.620;23.374;2023-05-07T00:55:48;8.97;;;7.37;;
11334;SDS011;5722;42.620;23.374;2023-05-07T00:58:16;8.90;;;7.83;;
11334;SDS011;5722;42.620;23.374;2023-05-07T01:00:45;11.47;;;7.40;;
11334;SDS011;5722;42.620;23.374;2023-05-07T01:03:14;10.77;;;7.87;;
11334;SDS011;5722;42.620;23.374;2023-05-07T01:05:41;8.53;;;7.63;;
11334;SDS011;5722;42.620;23.374;2023-05-07T01:08:09;8.00;;;7.20;;
11334;SDS011;5722;42.620;23.374;2023-05-07T01:10:46;8.67;;;7.60;;
11334;SDS011;5722;42.620;23.374;2023-05-07T01:13:26;8.17;;;7.03;;
11334;SDS011;5722;42.620;23.374;2023-05-07T01:15:55;8.90;;;7.03;;
11334;SDS011;5722;42.620;23.374;2023-05-07T01:18:22;8.93;;;6.93;;
11334;SDS011;5722;42.620;23.374;2023-05-07T01:20:52;6.53;;;5.93;;
11334;SDS011;5722;42.620;23.374;2023-05-07T01:23:21;7.77;;;6.17;;
11334;SDS011;5722;42.620;23.374;2023-05-07T01:25:52;7.40;;;6.50;;
11334;SDS011;5722;42.620;23.374;2023-05-07T01:28:19;8.37;;;6.60;;
11334;SDS011;5722;42.620;23.374;2023-05-07T01:30:48;6.83;;;6.20;;
11334;SDS011;5722;42.620;23.374;2023-05-07T01:33:16;7.97;;;6.60;;
11334;SDS011;5722;42.620;23.374;2023-05-07T01:35:47;7.23;;;6.53;;
11334;SDS011;5722;42.620;23.374;2023-05-07T01:38:15;9.97;;;7.97;;
11334;SDS011;5722;42.620;23.374;2023-05-07T01:40:45;9.30;;;8.40;;
11334;SDS011;5722;42.620;23.374;2023-05-07T01:43:14;10.43;;;7.90;;
11334;SDS011;5722;42.620;23.374;2023-05-07T01:45:42;10.10;;;9.03;;
11334;SDS011;5722;42.620;23.374;2023-05-07T01:48:09;10.40;;;9.13;;
11334;SDS011;5722;42.620;23.374;2023-05-07T01:50:37;10.63;;;9.10;;
11334;SDS011;5722;42.620;23.374;2023-05-07T01:53:07;10.13;;;8.70;;
11334;SDS011;5722;42.620;23.374;2023-05-07T01:55:34;9.73;;;8.73;;
11334;SDS011;5722;42.620;23.374;2023-05-07T01:58:04;13.00;;;9.30;;
11334;SDS011;5722;42.620;23.374;2023-05-07T02:00:31;9.23;;;8.30;;
11334;SDS011;5722;42.620;23.374;2023-05-07T02:02:58;10.37;;;9.10;;
11334;SDS011;5722;42.620;23.374;2023-05-07T02:08:01;10.43;;;9.33;;
11334;SDS011;5722;42.620;23.374;2023-05-07T02:10:29;10.50;;;9.40;;
11334;SDS011;5722;42.620;23.374;2023-05-07T02:12:56;10.93;;;9.27;;
11334;SDS011;5722;42.620;23.374;2023-05-07T02:15:25;12.90;;;9.43;;
11334;SDS011;5722;42.620;23.374;2023-05-07T02:17:58;10.67;;;9.67;;
11334;SDS011;5722;42.620;23.374;2023-05-07T02:20:26;10.80;;;9.70;;
11334;SDS011;5722;42.620;23.374;2023-05-07T02:22:55;11.67;;;9.50;;
11334;SDS011;5722;42.620;23.374;2023-05-07T02:25:22;11.93;;;8.97;;
11334;SDS011;5722;42.620;23.374;2023-05-07T02:27:49;10.53;;;9.47;;
11334;SDS011;5722;42.620;23.374;2023-05-07T02:30:17;9.70;;;8.53;;
11334;SDS011;5722;42.620;23.374;2023-05-07T02:32:48;8.93;;;8.03;;
11334;SDS011;5722;42.620;23.374;2023-05-07T02:35:15;8.90;;;7.80;;
11334;SDS011;5722;42.620;23.374;2023-05-07T02:37:43;10.43;;;8.97;;
11334;SDS011;5722;42.620;23.374;2023-05-07T02:40:10;9.50;;;8.50;;
11334;SDS011;5722;42.620;23.374;2023-05-07T02:42:38;10.10;;;9.10;;
11334;SDS011;5722;42.620;23.374;2023-05-07T02:45:06;10.70;;;8.90;;
11334;SDS011;5722;42.620;23.374;2023-05-07T02:47:33;11.10;;;9.10;;
11334;SDS011;5722;42.620;23.374;2023-05-07T02:50:02;13.60;;;10.40;;
11334;SDS011;5722;42.620;23.374;2023-05-07T02:52:30;10.90;;;9.80;;
11334;SDS011;5722;42.620;23.374;2023-05-07T02:54:57;10.97;;;9.83;;
11334;SDS011;5722;42.620;23.374;2023-05-07T02:57:24;11.77;;;10.57;;
11334;SDS011;5722;42.620;23.374;2023-05-07T02:59:58;13.27;;;11.20;;
11334;SDS011;5722;42.620;23.374;2023-05-07T03:02:25;13.03;;;11.73;;
11334;SDS011;5722;42.620;23.374;2023-05-07T03:04:52;12.90;;;10.83;;
11334;SDS011;5722;42.620;23.374;2023-05-07T03:07:20;11.83;;;10.63;;
11334;SDS011;5722;42.620;23.374;2023-05-07T03:09:48;12.07;;;10.87;;
11334;SDS011;5722;42.620;23.374;2023-05-07T03:12:15;12.87;;;11.47;;
11334;SDS011;5722;42.620;23.374;2023-05-07T03:14:43;12.17;;;10.97;;
11334;SDS011;5722;42.620;23.374;2023-05-07T03:17:12;13.33;;;11.43;;
11334;SDS011;5722;42.620;23.374;2023-05-07T03:19:39;14.37;;;11.50;;
11334;SDS011;5722;42.620;23.374;2023-05-07T03:22:06;12.37;;;11.17;;
11334;SDS011;5722;42.620;23.374;2023-05-07T03:24:35;13.27;;;11.37;;
11334;SDS011;5722;42.620;23.374;2023-05-07T03:27:03;14.27;;;11.90;;
11334;SDS011;5722;42.620;23.374;2023-05-07T03:29:30;13.27;;;11.87;;
11334;SDS011;5722;42.620;23.374;2023-05-07T03:31:57;14.23;;;12.47;;
11334;SDS011;5722;42.620;23.374;2023-05-07T03:34:29;17.43;;;11.97;;
11334;SDS011;5722;42.620;23.374;2023-05-07T03:36:56;13.67;;;12.17;;
11334;SDS011;5722;42.620;23.374;2023-05-07T03:39:36;15.03;;;12.47;;
11334;SDS011;5722;42.620;23.374;2023-05-07T03:42:05;16.53;;;12.97;;
11334;SDS011;5722;42.620;23.374;2023-05-07T03:44:33;15.50;;;11.93;;
11334;SDS011;5722;42.620;23.374;2023-05-07T03:47:02;14.67;;;11.73;;
11334;SDS011;5722;42.620;23.374;2023-05-07T03:49:30;15.67;;;11.83;;
11334;SDS011;5722;42.620;23.374;2023-05-07T03:51:57;14.23;;;12.00;;
11334;SDS011;5722;42.620;23.374;2023-05-07T03:54:24;12.63;;;11.07;;
11334;SDS011;5722;42.620;23.374;2023-05-07T03:56:53;12.83;;;11.53;;
11334;SDS011;5722;42.620;23.374;2023-05-07T03:59:23;13.83;;;11.67;;
11334;SDS011;5722;42.620;23.374;2023-05-07T04:01:50;13.83;;;11.50;;
11334;SDS011;5722;42.620;23.374;2023-05-07T04:04:18;15.83;;;13.97;;
11334;SDS011;5722;42.620;23.374;2023-05-07T04:06:46;17.23;;;13.90;;
11334;SDS011;5722;42.620;23.374;2023-05-07T04:09:14;14.93;;;13.20;;
11334;SDS011;5722;42.620;23.374;2023-05-07T04:11:43;16.30;;;13.37;;
11334;SDS011;5722;42.620;23.374;2023-05-07T04:16:45;16.80;;;13.73;;
11334;SDS011;5722;42.620;23.374;2023-05-07T04:19:12;16.67;;;14.07;;
11334;SDS011;5722;42.620;23.374;2023-05-07T04:21:41;17.73;;;14.27;;
11334;SDS011;5722;42.620;23.374;2023-05-07T04:24:10;14.97;;;13.47;;
11334;SDS011;5722;42.620;23.374;2023-05-07T04:26:40;17.30;;;14.13;;
11334;SDS011;5722;42.620;23.374;2023-05-07T04:29:13;16.37;;;13.43;;
11334;SDS011;5722;42.620;23.374;2023-05-07T04:31:41;15.83;;;13.80;;
11334;SDS011;5722;42.620;23.374;2023-05-07T04:34:12;19.43;;;14.13;;
11334;SDS011;5722;42.620;23.374;2023-05-07T04:36:42;16.57;;;13.27;;
11334;SDS011;5722;42.620;23.374;2023-05-07T04:39:13;15.57;;;13.20;;
11334;SDS011;5722;42.620;23.374;2023-05-07T04:41:48;16.97;;;13.20;;
11334;SDS011;5722;42.620;23.374;2023-05-07T04:44:18;15.67;;;12.70;;
11334;SDS011;5722;42.620;23.374;2023-05-07T04:46:46;14.97;;;13.37;;
11334;SDS011;5722;42.620;23.374;2023-05-07T04:49:19;16.33;;;12.73;;
11334;SDS011;5722;42.620;23.374;2023-05-07T04:51:57;14.57;;;13.07;;
11334;SDS011;5722;42.620;23.374;2023-05-07T04:54:25;13.77;;;12.33;;
11334;SDS011;5722;42.620;23.374;2023-05-07T04:56:53;14.17;;;12.07;;
11334;SDS011;5722;42.620;23.374;2023-05-07T04:59:23;15.77;;;12.80;;
11334;SDS011;5722;42.620;23.374;2023-05-07T05:01:50;13.83;;;12.20;;
11334;SDS011;5722;42.620;23.374;2023-05-07T05:04:20;14.10;;;11.53;;
11334;SDS011;5722;42.620;23.374;2023-05-07T05:06:58;14.90;;;11.80;;
11334;SDS011;5722;42.620;23.374;2023-05-07T05:09:26;13.17;;;11.23;;
11334;SDS011;5722;42.620;23.374;2023-05-07T05:11:54;17.90;;;11.13;;
11334;SDS011;5722;42.620;23.374;2023-05-07T05:14:23;11.73;;;10.53;;
11334;SDS011;5722;42.620;23.374;2023-05-07T05:16:51;13.70;;;11.90;;
11334;SDS011;5722;42.620;23.374;2023-05-07T05:19:26;13.03;;;11.40;;
11334;SDS011;5722;42.620;23.374;2023-05-07T05:21:54;13.20;;;11.23;;
11334;SDS011;5722;42.620;23.374;2023-05-07T05:24:23;11.63;;;10.40;;
11334;SDS011;5722;42.620;23.374;2023-05-07T05:27:01;14.30;;;10.40;;
11334;SDS011;5722;42.620;23.374;2023-05-07T05:29:30;12.87;;;10.80;;
11334;SDS011;5722;42.620;23.374;2023-05-07T05:31:58;14.50;;;10.47;;
11334;SDS011;5722;42.620;23.374;2023-05-07T05:34:30;11.47;;;9.90;;
11334;SDS011;5722;42.620;23.374;2023-05-07T05:36:59;11.83;;;10.60;;
11334;SDS011;5722;42.620;23.374;2023-05-07T05:39:27;11.00;;;9.40;;
11334;SDS011;5722;42.620;23.374;2023-05-07T05:41:55;12.30;;;10.80;;
11334;SDS011;5722;42.620;23.374;2023-05-07T05:44:22;12.93;;;9.83;;
11334;SDS011;5722;42.620;23.374;2023-05-07T05:46:51;11.37;;;10.10;;
11334;SDS011;5722;42.620;23.374;2023-05-07T05:49:22;14.17;;;10.33;;
11334;SDS011;5722;42.620;23.374;2023-05-07T05:51:57;12.77;;;10.30;;
11334;SDS011;5722;42.620;23.374;2023-05-07T05:54:23;12.00;;;10.30;;
11334;SDS011;5722;42.620;23.374;2023-05-07T05:59:22;11.43;;;10.20;;
11334;SDS011;5722;42.620;23.374;2023-05-07T06:01:55;11.10;;;9.80;;
11334;SDS011;5722;42.620;23.374;2023-05-07T06:04:23;13.03;;;10.47;;
11334;SDS011;5722;42.620;23.374;2023-05-07T06:06:50;12.53;;;9.77;;
11334;SDS011;5722;42.620;23.374;2023-05-07T06:09:22;11.73;;;10.03;;
11334;SDS011;5722;42.620;23.374;2023-05-07T06:11:55;11.67;;;10.13;;
11334;SDS011;5722;42.620;23.374;2023-05-07T06:14:24;11.00;;;9.77;;
11334;SDS011;5722;42.620;23.374;2023-05-07T06:16:52;11.93;;;9.73;;
11334;SDS011;5722;42.620;23.374;2023-05-07T06:19:20;10.60;;;9.50;;
11334;SDS011;5722;42.620;23.374;2023-05-07T06:21:50;11.13;;;9.87;;
11334;SDS011;5722;42.620;23.374;2023-05-07T06:24:19;11.10;;;9.80;;
11334;SDS011;5722;42.620;23.374;2023-05-07T06:26:49;13.53;;;9.77;;
11334;SDS011;5722;42.620;23.374;2023-05-07T06:29:23;10.73;;;9.60;;
11334;SDS011;5722;42.620;23.374;2023-05-07T06:31:51;10.70;;;9.60;;
11334;SDS011;5722;42.620;23.374;2023-05-07T06:34:22;10.33;;;9.00;;
11334;SDS011;5722;42.620;23.374;2023-05-07T06:36:50;10.83;;;9.37;;
11334;SDS011;5722;42.620;23.374;2023-05-07T06:39:18;9.60;;;8.57;;
11334;SDS011;5722;42.620;23.374;2023-05-07T06:41:47;9.83;;;8.27;;
11334;SDS011;5722;42.620;23.374;2023-05-07T06:44:16;9.40;;;7.50;;
11334;SDS011;5722;42.620;23.374;2023-05-07T06:46:51;8.13;;;7.00;;
11334;SDS011;5722;42.620;23.374;2023-05-07T06:49:21;8.43;;;7.30;;
11334;SDS011;5722;42.620;23.374;2023-05-07T06:51:54;9.90;;;7.67;;
11334;SDS011;5722;42.620;23.374;2023-05-07T06:54:24;7.70;;;6.40;;
11334;SDS011;5722;42.620;23.374;2023-05-07T07:02:43;8.40;;;7.50;;
11334;SDS011;5722;42.620;23.374;2023-05-07T07:05:13;10.13;;;8.27;;
11334;SDS011;5722;42.620;23.374;2023-05-07T07:07:44;9.83;;;8.43;;
11334;SDS011;5722;42.620;23.374;2023-05-07T07:10:18;10.17;;;8.07;;
11334;SDS011;5722;42.620;23.374;2023-05-07T07:13:10;9.13;;;7.53;;
11334;SDS011;5722;42.620;23.374;2023-05-07T07:15:40;8.20;;;7.40;;
11334;SDS011;5722;42.620;23.374;2023-05-07T07:18:23;9.50;;;7.87;;
11334;SDS011;5722;42.620;23.374;2023-05-07T07:20:56;9.30;;;7.72;;
11334;SDS011;5722;42.620;23.374;2023-05-07T07:23:26;8.30;;;7.47;;
11334;SDS011;5722;42.620;23.374;2023-05-07T07:25:55;8.70;;;6.93;;
11334;SDS011;5722;42.620;23.374;2023-05-07T07:28:44;16.52;;;8.10;;
11334;SDS011;5722;42.620;23.374;2023-05-07T07:31:16;11.50;;;7.18;;
11334;SDS011;5722;42.620;23.374;2023-05-07T07:33:49;7.75;;;6.60;;
11334;SDS011;5722;42.620;23.374;2023-05-07T07:36:22;8.77;;;7.28;;
11334;SDS011;5722;42.620;23.374;2023-05-07T07:38:55;7.53;;;6.82;;
11334;SDS011;5722;42.620;23.374;2023-05-07T07:41:21;7.63;;;6.68;;
11334;SDS011;5722;42.620;23.374;2023-05-07T07:43:55;9.60;;;7.82;;
11334;SDS011;5722;42.620;23.374;2023-05-07T07:46:32;8.55;;;7.75;;
11334;SDS011;5722;42.620;23.374;2023-05-07T07:49:01;8.60;;;7.70;;
11334;SDS011;5722;42.620;23.374;2023-05-07T07:51:34;10.45;;;6.47;;
11334;SDS011;5722;42.620;23.374;2023-05-07T07:54:05;7.60;;;6.50;;
11334;SDS011;5722;42.620;23.374;2023-05-07T07:56:36;8.95;;;7.43;;
11334;SDS011;5722;42.620;23.374;2023-05-07T07:59:04;11.10;;;6.60;;
11334;SDS011;5722;42.620;23.374;2023-05-07T08:01:32;7.40;;;6.65;;
11334;SDS011;5722;42.620;23.374;2023-05-07T08:04:15;9.45;;;5.80;;
11334;SDS011;5722;42.620;23.374;2023-05-07T08:06:41;8.50;;;6.75;;
11334;SDS011;5722;42.620;23.374;2023-05-07T08:09:09;8.35;;;6.32;;
11334;SDS011;5722;42.620;23.374;2023-05-07T08:11:49;7.78;;;5.63;;
11334;SDS011;5722;42.620;23.374;2023-05-07T08:14:17;9.57;;;6.88;;
11334;SDS011;5722;42.620;23.374;2023-05-07T08:16:44;8.10;;;5.97;;
11334;SDS011;5722;42.620;23.374;2023-05-07T08:19:14;6.70;;;5.88;;
11334;SDS011;5722;42.620;23.374;2023-05-07T08:21:41;7.65;;;6.07;;
11334;SDS011;5722;42.620;23.374;2023-05-07T08:24:12;8.98;;;5.50;;
11334;SDS011;5722;42.620;23.374;2023-05-07T08:26:40;7.97;;;6.25;;
11334;SDS011;5722;42.620;23.374;2023-05-07T08:29:25;7.03;;;6.38;;
11334;SDS011;5722;42.620;23.374;2023-05-07T08:31:53;7.95;;;6.47;;
11334;SDS011;5722;42.620;23.374;2023-05-07T08:34:29;10.00;;;6.65;;
11334;SDS011;5722;42.620;23.374;2023-05-07T08:36:57;7.18;;;6.07;;
11334;SDS011;5722;42.620;23.374;2023-05-07T08:42:19;9.57;;;6.38;;
11334;SDS011;5722;42.620;23.374;2023-05-07T08:44:48;10.75;;;7.05;;
11334;SDS011;5722;42.620;23.374;2023-05-07T08:47:18;6.82;;;6.20;;
11334;SDS011;5722;42.620;23.374;2023-05-07T08:49:47;7.95;;;6.72;;
11334;SDS011;5722;42.620;23.374;2023-05-07T08:52:16;8.75;;;5.95;;
11334;SDS011;5722;42.620;23.374;2023-05-07T08:54:58;7.72;;;6.20;;
11334;SDS011;5722;42.620;23.374;2023-05-07T08:57:30;7.97;;;5.80;;
11334;SDS011;5722;42.620;23.374;2023-05-07T08:59:59;9.45;;;5.85;;
11334;SDS011;5722;42.620;23.374;2023-05-07T09:02:27;11.75;;;6.55;;
11334;SDS011;5722;42.620;23.374;2023-05-07T09:04:59;10.27;;;5.85;;
11334;SDS011;5722;42.620;23.374;2023-05-07T09:07:26;10.93;;;6.57;;
11334;SDS011;5722;42.620;23.374;2023-05-07T09:09:54;15.23;;;9.40;;
11334;SDS011;5722;42.620;23.374;2023-05-07T09:12:22;9.50;;;5.30;;
11334;SDS011;5722;42.620;23.374;2023-05-07T09:14:49;5.70;;;5.10;;
11334;SDS011;5722;42.620;23.374;2023-05-07T09:17:19;7.38;;;5.43;;
11334;SDS011;5722;42.620;23.374;2023-05-07T09:19:48;8.70;;;4.50;;
11334;SDS011;5722;42.620;23.374;2023-05-07T09:22:31;7.03;;;5.22;;
11334;SDS011;5722;42.620;23.374;2023-05-07T09:25:02;6.40;;;5.63;;
11334;SDS011;5722;42.620;23.374;2023-05-07T09:27:30;7.20;;;4.85;;
11334;SDS011;5722;42.620;23.374;2023-05-07T09:29:57;6.60;;;5.47;;
11334;SDS011;5722;42.620;23.374;2023-05-07T09:32:24;7.03;;;5.25;;
11334;SDS011;5722;42.620;23.374;2023-05-07T09:34:52;6.38;;;5.22;;
11334;SDS011;5722;42.620;23.374;2023-05-07T09:37:22;8.55;;;4.95;;
11334;SDS011;5722;42.620;23.374;2023-05-07T09:39:55;5.78;;;4.90;;
11334;SDS011;5722;42.620;23.374;2023-05-07T09:42:23;8.50;;;4.97;;
11334;SDS011;5722;42.620;23.374;2023-05-07T09:44:51;7.85;;;4.75;;
11334;SDS011;5722;42.620;23.374;2023-05-07T09:47:19;8.85;;;4.60;;
11334;SDS011;5722;42.620;23.374;2023-05-07T09:49:47;7.95;;;4.90;;
11334;SDS011;5722;42.620;23.374;2023-05-07T09:52:18;5.40;;;4.70;;
11334;SDS011;5722;42.620;23.374;2023-05-07T09:54:48;8.75;;;4.85;;
11334;SDS011;5722;42.620;23.374;2023-05-07T09:57:19;8.82;;;4.55;;
11334;SDS011;5722;42.620;23.374;2023-05-07T09:59:51;7.60;;;4.18;;
11334;SDS011;5722;42.620;23.374;2023-05-07T10:05:45;5.60;;;5.03;;
11334;SDS011;5722;42.620;23.374;2023-05-07T10:08:14;6.20;;;4.20;;
11334;SDS011;5722;42.620;23.374;2023-05-07T10:11:12;5.53;;;4.47;;
11334;SDS011;5722;42.620;23.374;2023-05-07T10:19:57;5.97;;;4.22;;
11334;SDS011;5722;42.620;23.374;2023-05-07T10:25:28;4.05;;;3.65;;
11334;SDS011;5722;42.620;23.374;2023-05-07T10:28:26;5.57;;;4.03;;
11334;SDS011;5722;42.620;23.374;2023-05-07T10:30:57;5.07;;;4.50;;
11334;SDS011;5722;42.620;23.374;2023-05-07T10:33:35;6.22;;;4.63;;
11334;SDS011;5722;42.620;23.374;2023-05-07T11:15:49;4.68;;;4.28;;
11334;SDS011;5722;42.620;23.374;2023-05-07T11:18:18;5.07;;;4.38;;
11334;SDS011;5722;42.620;23.374;2023-05-07T11:20:49;5.07;;;4.47;;
11334;SDS011;5722;42.620;23.374;2023-05-07T11:26:06;9.88;;;4.40;;
11334;SDS011;5722;42.620;23.374;2023-05-07T11:28:37;4.57;;;4.18;;
11334;SDS011;5722;42.620;23.374;2023-05-07T11:31:07;5.93;;;3.95;;
11334;SDS011;5722;42.620;23.374;2023-05-07T11:33:34;4.72;;;4.30;;
11334;SDS011;5722;42.620;23.374;2023-05-07T11:36:07;5.22;;;4.40;;
11334;SDS011;5722;42.620;23.374;2023-05-07T11:38:34;4.78;;;4.30;;
11334;SDS011;5722;42.620;23.374;2023-05-07T11:41:04;5.63;;;4.40;;
11334;SDS011;5722;42.620;23.374;2023-05-07T11:43:32;5.40;;;4.30;;
11334;SDS011;5722;42.620;23.374;2023-05-07T11:48:52;6.50;;;4.35;;
11334;SDS011;5722;42.620;23.374;2023-05-07T11:51:24;6.00;;;4.03;;
11334;SDS011;5722;42.620;23.374;2023-05-07T11:53:56;5.32;;;4.47;;
11334;SDS011;5722;42.620;23.374;2023-05-07T11:59:32;6.22;;;4.25;;
11334;SDS011;5722;42.620;23.374;2023-05-07T12:02:06;7.28;;;4.15;;
11334;SDS011;5722;42.620;23.374;2023-05-07T12:13:33;7.28;;;4.55;;
11334;SDS011;5722;42.620;23.374;2023-05-07T12:21:49;6.65;;;4.53;;
11334;SDS011;5722;42.620;23.374;2023-05-07T12:24:59;4.90;;;4.15;;
11334;SDS011;5722;42.620;23.374;2023-05-07T12:36:51;7.32;;;4.70;;
11334;SDS011;5722;42.620;23.374;2023-05-07T12:39:18;7.13;;;4.60;;
11334;SDS011;5722;42.620;23.374;2023-05-07T12:41:53;5.93;;;4.00;;
11334;SDS011;5722;42.620;23.374;2023-05-07T12:44:21;9.13;;;4.05;;
11334;SDS011;5722;42.620;23.374;2023-05-07T12:47:05;5.50;;;4.07;;
11334;SDS011;5722;42.620;23.374;2023-05-07T12:49:49;4.00;;;3.70;;
11334;SDS011;5722;42.620;23.374;2023-05-07T12:55:31;5.32;;;3.90;;
11334;SDS011;5722;42.620;23.374;2023-05-07T12:58:18;6.85;;;4.03;;
11334;SDS011;5722;42.620;23.374;2023-05-07T13:01:01;4.55;;;4.00;;
11334;SDS011;5722;42.620;23.374;2023-05-07T13:03:41;5.63;;;4.30;;
11334;SDS011;5722;42.620;23.374;2023-05-07T13:06:28;6.45;;;3.78;;
11334;SDS011;5722;42.620;23.374;2023-05-07T13:08:55;5.82;;;4.00;;
11334;SDS011;5722;42.620;23.374;2023-05-07T13:11:39;4.45;;;3.83;;
11334;SDS011;5722;42.620;23.374;2023-05-07T13:14:07;4.57;;;4.15;;
11334;SDS011;5722;42.620;23.374;2023-05-07T13:29:40;4.30;;;3.90;;
11334;SDS011;5722;42.620;23.374;2023-05-07T13:32:08;4.90;;;4.00;;
11334;SDS011;5722;42.620;23.374;2023-05-07T13:34:46;3.88;;;3.58;;
11334;SDS011;5722;42.620;23.374;2023-05-07T13:37:14;4.50;;;3.80;;
11334;SDS011;5722;42.620;23.374;2023-05-07T13:39:49;5.25;;;3.65;;
11334;SDS011;5722;42.620;23.374;2023-05-07T13:42:21;5.75;;;3.38;;
11334;SDS011;5722;42.620;23.374;2023-05-07T13:45:02;4.90;;;2.97;;
11334;SDS011;5722;42.620;23.374;2023-05-07T13:47:35;3.78;;;2.92;;
11334;SDS011;5722;42.620;23.374;2023-05-07T13:50:07;3.22;;;2.90;;
11334;SDS011;5722;42.620;23.374;2023-05-07T13:52:37;3.83;;;3.17;;
11334;SDS011;5722;42.620;23.374;2023-05-07T13:55:08;3.35;;;3.05;;
11334;SDS011;5722;42.620;23.374;2023-05-07T13:57:36;3.20;;;2.90;;
11334;SDS011;5722;42.620;23.374;2023-05-07T14:00:16;3.90;;;2.92;;
11334;SDS011;5722;42.620;23.374;2023-05-07T14:03:01;3.75;;;3.10;;
11334;SDS011;5722;42.620;23.374;2023-05-07T14:05:34;3.42;;;2.88;;
11334;SDS011;5722;42.620;23.374;2023-05-07T14:08:02;4.95;;;2.85;;
11334;SDS011;5722;42.620;23.374;2023-05-07T14:13:23;5.38;;;2.80;;
11334;SDS011;5722;42.620;23.374;2023-05-07T14:16:00;3.25;;;2.80;;
11334;SDS011;5722;42.620;23.374;2023-05-07T14:18:31;3.63;;;2.75;;
11334;SDS011;5722;42.620;23.374;2023-05-07T14:21:04;3.40;;;3.05;;
11334;SDS011;5722;42.620;23.374;2023-05-07T14:26:19;3.00;;;2.65;;
11334;SDS011;5722;42.620;23.374;2023-05-07T14:28:50;4.60;;;2.80;;
11334;SDS011;5722;42.620;23.374;2023-05-07T14:31:25;3.85;;;2.80;;
11334;SDS011;5722;42.620;23.374;2023-05-07T14:33:54;6.63;;;2.60;;
11334;SDS011;5722;42.620;23.374;2023-05-07T14:36:23;5.82;;;2.50;;
11334;SDS011;5722;42.620;23.374;2023-05-07T14:38:54;3.38;;;2.65;;
11334;SDS011;5722;42.620;23.374;2023-05-07T14:41:26;5.13;;;2.80;;
11334;SDS011;5722;42.620;23.374;2023-05-07T14:44:06;3.22;;;2.90;;
11334;SDS011;5722;42.620;23.374;2023-05-07T14:46:38;4.28;;;2.50;;
11334;SDS011;5722;42.620;23.374;2023-05-07T14:49:06;3.33;;;2.60;;
11334;SDS011;5722;42.620;23.374;2023-05-07T14:51:42;6.95;;;5.30;;
11334;SDS011;5722;42.620;23.374;2023-05-07T14:54:11;12.60;;;9.23;;
11334;SDS011;5722;42.620;23.374;2023-05-07T14:56:42;5.28;;;3.20;;
11334;SDS011;5722;42.620;23.374;2023-05-07T14:59:15;6.25;;;3.20;;
11334;SDS011;5722;42.620;23.374;2023-05-07T15:01:51;2.80;;;2.47;;
11334;SDS011;5722;42.620;23.374;2023-05-07T15:04:42;2.97;;;2.63;;
11334;SDS011;5722;42.620;23.374;2023-05-07T15:07:14;3.83;;;2.90;;
11334;SDS011;5722;42.620;23.374;2023-05-07T15:09:42;3.15;;;2.67;;
11334;SDS011;5722;42.620;23.374;2023-05-07T15:12:09;3.58;;;2.55;;
11334;SDS011;5722;42.620;23.374;2023-05-07T15:14:42;3.17;;;2.67;;
11334;SDS011;5722;42.620;23.374;2023-05-07T15:17:12;4.25;;;2.88;;
11334;SDS011;5722;42.620;23.374;2023-05-07T15:19:55;6.40;;;2.92;;
11334;SDS011;5722;42.620;23.374;2023-05-07T15:22:27;5.10;;;3.10;;
11334;SDS011;5722;42.620;23.374;2023-05-07T15:25:09;4.97;;;2.60;;
11334;SDS011;5722;42.620;23.374;2023-05-07T15:27:39;3.83;;;3.00;;
11334;SDS011;5722;42.620;23.374;2023-05-07T15:30:10;4.38;;;2.80;;
11334;SDS011;5722;42.620;23.374;2023-05-07T15:32:39;2.85;;;2.55;;
11334;SDS011;5722;42.620;23.374;2023-05-07T15:35:07;3.03;;;2.75;;
11334;SDS011;5722;42.620;23.374;2023-05-07T15:37:41;4.25;;;2.60;;
11334;SDS011;5722;42.620;23.374;2023-05-07T15:40:09;3.80;;;2.90;;
11334;SDS011;5722;42.620;23.374;2023-05-07T15:42:45;4.50;;;3.10;;
11334;SDS011;5722;42.620;23.374;2023-05-07T15:45:15;4.07;;;3.17;;
11334;SDS011;5722;42.620;23.374;2023-05-07T15:47:45;3.35;;;3.05;;
11334;SDS011;5722;42.620;23.374;2023-05-07T15:50:12;4.80;;;3.20;;
11334;SDS011;5722;42.620;23.374;2023-05-07T15:52:58;6.38;;;4.72;;
11334;SDS011;5722;42.620;23.374;2023-05-07T15:55:29;3.75;;;3.35;;
11334;SDS011;5722;42.620;23.374;2023-05-07T15:58:08;5.72;;;3.08;;
11334;SDS011;5722;42.620;23.374;2023-05-07T16:03:52;5.60;;;4.43;;
11334;SDS011;5722;42.620;23.374;2023-05-07T16:12:34;4.43;;;3.85;;
11334;SDS011;5722;42.620;23.374;2023-05-07T16:15:03;5.35;;;3.38;;
11334;SDS011;5722;42.620;23.374;2023-05-07T16:17:33;4.93;;;3.00;;
11334;SDS011;5722;42.620;23.374;2023-05-07T16:20:03;3.38;;;3.08;;
11334;SDS011;5722;42.620;23.374;2023-05-07T16:22:33;6.53;;;4.90;;
11334;SDS011;5722;42.620;23.374;2023-05-07T16:25:03;5.15;;;4.03;;
11334;SDS011;5722;42.620;23.374;2023-05-07T16:27:32;5.57;;;3.80;;
11334;SDS011;5722;42.620;23.374;2023-05-07T16:30:13;6.25;;;4.35;;
11334;SDS011;5722;42.620;23.374;2023-05-07T16:32:46;10.38;;;4.90;;
11334;SDS011;5722;42.620;23.374;2023-05-07T16:35:18;6.72;;;5.05;;
11334;SDS011;5722;42.620;23.374;2023-05-07T16:37:46;8.00;;;5.25;;
11334;SDS011;5722;42.620;23.374;2023-05-07T16:43:04;9.93;;;4.80;;
11334;SDS011;5722;42.620;23.374;2023-05-07T16:45:37;10.77;;;4.75;;
11334;SDS011;5722;42.620;23.374;2023-05-07T16:48:08;6.15;;;3.90;;
11334;SDS011;5722;42.620;23.374;2023-05-07T16:50:43;6.75;;;4.47;;
11334;SDS011;5722;42.620;23.374;2023-05-07T16:53:17;9.52;;;4.65;;
11334;SDS011;5722;42.620;23.374;2023-05-07T16:56:03;11.57;;;8.77;;
11334;SDS011;5722;42.620;23.374;2023-05-07T16:58:36;10.48;;;7.32;;
11334;SDS011;5722;42.620;23.374;2023-05-07T17:01:15;6.82;;;3.67;;
11334;SDS011;5722;42.620;23.374;2023-05-07T17:03:47;7.13;;;2.83;;
11334;SDS011;5722;42.620;23.374;2023-05-07T17:06:28;6.68;;;3.10;;
11334;SDS011;5722;42.620;23.374;2023-05-07T17:09:14;6.35;;;3.30;;
11334;SDS011;5722;42.620;23.374;2023-05-07T17:11:43;3.83;;;3.15;;
11334;SDS011;5722;42.620;23.374;2023-05-07T17:17:32;8.02;;;3.30;;
11334;SDS011;5722;42.620;23.374;2023-05-07T17:20:08;5.35;;;2.90;;
11334;SDS011;5722;42.620;23.374;2023-05-07T17:22:49;7.93;;;3.25;;
11334;SDS011;5722;42.620;23.374;2023-05-07T17:25:24;6.47;;;3.13;;